sensor_id;sensor_type;location;lat;lon;timestamp;temperature;humidity
37806;DHT22;25082;50.870;0.022;2023-04-24T00:00:09;18.10;64.20
37806;DHT22;25082;50.870;0.022;2023-04-24T00:02:36;18.00;64.20
37806;DHT22;25082;50.870;0.022;2023-04-24T00:05:05;18.00;64.10
37806;DHT22;25082;50.870;0.022;2023-04-24T00:07:32;18.00;64.20
37806;DHT22;25082;50.870;0.022;2023-04-24T00:09:58;18.00;64.20
37806;DHT22;25082;50.870;0.022;2023-04-24T00:12:24;18.00;64.10
37806;DHT22;25082;50.870;0.022;2023-04-24T00:14:50;18.00;64.10
37806;DHT22;25082;50.870;0.022;2023-04-24T00:17:16;18.00;64.10
37806;DHT22;25082;50.870;0.022;2023-04-24T00:19:45;18.00;64.20
37806;DHT22;25082;50.870;0.022;2023-04-24T00:22:11;18.00;64.10
37806;DHT22;25082;50.870;0.022;2023-04-24T00:24:39;18.00;64.20
37806;DHT22;25082;50.870;0.022;2023-04-24T00:27:04;18.00;64.10
37806;DHT22;25082;50.870;0.022;2023-04-24T00:29:30;18.00;64.10
37806;DHT22;25082;50.870;0.022;2023-04-24T00:31:56;17.90;64.00
37806;DHT22;25082;50.870;0.022;2023-04-24T00:34:21;17.90;64.00
37806;DHT22;25082;50.870;0.022;2023-04-24T00:36:47;17.90;64.00
37806;DHT22;25082;50.870;0.022;2023-04-24T00:39:20;17.90;64.00
37806;DHT22;25082;50.870;0.022;2023-04-24T00:41:47;17.90;64.00
37806;DHT22;25082;50.870;0.022;2023-04-24T00:44:14;17.90;64.00
37806;DHT22;25082;50.870;0.022;2023-04-24T00:46:40;17.90;63.90
37806;DHT22;25082;50.870;0.022;2023-04-24T00:49:06;17.90;64.00
37806;DHT22;25082;50.870;0.022;2023-04-24T00:51:32;17.90;64.00
37806;DHT22;25082;50.870;0.022;2023-04-24T00:54:00;17.90;63.90
37806;DHT22;25082;50.870;0.022;2023-04-24T00:56:27;17.80;63.90
37806;DHT22;25082;50.870;0.022;2023-04-24T00:58:53;17.90;64.00
37806;DHT22;25082;50.870;0.022;2023-04-24T01:01:21;17.80;63.90
37806;DHT22;25082;50.870;0.022;2023-04-24T01:03:49;17.90;63.90
37806;DHT22;25082;50.870;0.022;2023-04-24T01:06:16;17.80;63.90
37806;DHT22;25082;50.870;0.022;2023-04-24T01:08:43;17.80;63.90
37806;DHT22;25082;50.870;0.022;2023-04-24T01:11:11;17.80;63.90
37806;DHT22;25082;50.870;0.022;2023-04-24T01:13:37;17.80;64.50
37806;DHT22;25082;50.870;0.022;2023-04-24T01:16:03;17.80;63.90
37806;DHT22;25082;50.870;0.022;2023-04-24T01:18:28;17.80;63.90
37806;DHT22;25082;50.870;0.022;2023-04-24T01:20:58;17.80;64.00
37806;DHT22;25082;50.870;0.022;2023-04-24T01:23:24;17.80;63.90
37806;DHT22;25082;50.870;0.022;2023-04-24T01:25:50;17.70;63.90
37806;DHT22;25082;50.870;0.022;2023-04-24T01:28:17;17.80;63.90
37806;DHT22;25082;50.870;0.022;2023-04-24T01:30:43;17.70;63.90
37806;DHT22;25082;50.870;0.022;2023-04-24T01:33:09;17.80;64.00
37806;DHT22;25082;50.870;0.022;2023-04-24T01:35:37;17.70;63.90
37806;DHT22;25082;50.870;0.022;2023-04-24T01:38:03;17.70;63.90
37806;DHT22;25082;50.870;0.022;2023-04-24T01:40:29;17.70;63.90
37806;DHT22;25082;50.870;0.022;2023-04-24T01:42:55;17.70;63.90
37806;DHT22;25082;50.870;0.022;2023-04-24T01:45:21;17.70;63.90
37806;DHT22;25082;50.870;0.022;2023-04-24T01:47:47;17.70;63.90
37806;DHT22;25082;50.870;0.022;2023-04-24T01:50:13;17.70;63.90
37806;DHT22;25082;50.870;0.022;2023-04-24T01:52:39;17.70;63.90
37806;DHT22;25082;50.870;0.022;2023-04-24T01:55:05;17.70;63.80
37806;DHT22;25082;50.870;0.022;2023-04-24T01:57:33;17.70;63.80
37806;DHT22;25082;50.870;0.022;2023-04-24T01:59:58;17.70;63.90
37806;DHT22;25082;50.870;0.022;2023-04-24T02:02:25;17.70;63.90
37806;DHT22;25082;50.870;0.022;2023-04-24T02:04:53;17.70;63.80
37806;DHT22;25082;50.870;0.022;2023-04-24T02:07:19;17.60;63.80
37806;DHT22;25082;50.870;0.022;2023-04-24T02:09:45;17.70;63.90
37806;DHT22;25082;50.870;0.022;2023-04-24T02:12:11;17.60;63.80
37806;DHT22;25082;50.870;0.022;2023-04-24T02:14:37;17.60;63.80
37806;DHT22;25082;50.870;0.022;2023-04-24T02:17:03;17.60;63.90
37806;DHT22;25082;50.870;0.022;2023-04-24T02:19:29;17.60;63.80
37806;DHT22;25082;50.870;0.022;2023-04-24T02:21:54;17.60;63.80
37806;DHT22;25082;50.870;0.022;2023-04-24T02:24:20;17.60;63.80
37806;DHT22;25082;50.870;0.022;2023-04-24T02:26:46;17.60;63.80
37806;DHT22;25082;50.870;0.022;2023-04-24T02:29:11;17.60;63.80
37806;DHT22;25082;50.870;0.022;2023-04-24T02:31:37;17.60;63.80
37806;DHT22;25082;50.870;0.022;2023-04-24T02:34:03;17.60;63.80
37806;DHT22;25082;50.870;0.022;2023-04-24T02:36:29;17.60;63.80
37806;DHT22;25082;50.870;0.022;2023-04-24T02:38:55;17.60;63.80
37806;DHT22;25082;50.870;0.022;2023-04-24T02:41:21;17.60;63.80
37806;DHT22;25082;50.870;0.022;2023-04-24T02:43:47;17.60;63.80
37806;DHT22;25082;50.870;0.022;2023-04-24T02:46:12;17.60;63.80
37806;DHT22;25082;50.870;0.022;2023-04-24T02:48:38;17.60;63.90
37806;DHT22;25082;50.870;0.022;2023-04-24T02:51:04;17.50;64.30
37806;DHT22;25082;50.870;0.022;2023-04-24T02:53:31;17.50;63.70
37806;DHT22;25082;50.870;0.022;2023-04-24T02:55:56;17.50;63.70
37806;DHT22;25082;50.870;0.022;2023-04-24T02:58:22;17.50;63.70
37806;DHT22;25082;50.870;0.022;2023-04-24T03:00:48;17.50;63.70
37806;DHT22;25082;50.870;0.022;2023-04-24T03:03:14;17.50;63.70
37806;DHT22;25082;50.870;0.022;2023-04-24T03:05:40;17.50;63.70
37806;DHT22;25082;50.870;0.022;2023-04-24T03:08:06;17.50;63.70
37806;DHT22;25082;50.870;0.022;2023-04-24T03:10:32;17.50;63.70
37806;DHT22;25082;50.870;0.022;2023-04-24T03:12:58;17.50;63.80
37806;DHT22;25082;50.870;0.022;2023-04-24T03:15:23;17.50;63.70
37806;DHT22;25082;50.870;0.022;2023-04-24T03:17:49;17.50;63.80
37806;DHT22;25082;50.870;0.022;2023-04-24T03:20:15;17.50;63.90
37806;DHT22;25082;50.870;0.022;2023-04-24T03:22:41;17.50;63.80
37806;DHT22;25082;50.870;0.022;2023-04-24T03:25:07;17.50;63.80
37806;DHT22;25082;50.870;0.022;2023-04-24T03:27:34;17.50;63.90
37806;DHT22;25082;50.870;0.022;2023-04-24T03:30:00;17.50;63.90
37806;DHT22;25082;50.870;0.022;2023-04-24T03:32:26;17.40;63.90
37806;DHT22;25082;50.870;0.022;2023-04-24T03:34:52;17.40;63.80
37806;DHT22;25082;50.870;0.022;2023-04-24T03:37:18;17.50;63.90
37806;DHT22;25082;50.870;0.022;2023-04-24T03:39:44;17.40;63.80
37806;DHT22;25082;50.870;0.022;2023-04-24T03:42:10;17.40;63.80
37806;DHT22;25082;50.870;0.022;2023-04-24T03:44:36;17.40;63.90
37806;DHT22;25082;50.870;0.022;2023-04-24T03:47:02;17.40;63.80
37806;DHT22;25082;50.870;0.022;2023-04-24T03:49:27;17.40;63.80
37806;DHT22;25082;50.870;0.022;2023-04-24T03:51:53;17.40;63.90
37806;DHT22;25082;50.870;0.022;2023-04-24T03:54:19;17.40;63.80
37806;DHT22;25082;50.870;0.022;2023-04-24T03:56:45;17.40;63.90
37806;DHT22;25082;50.870;0.022;2023-04-24T03:59:11;17.40;63.80
37806;DHT22;25082;50.870;0.022;2023-04-24T04:01:37;17.40;63.90
37806;DHT22;25082;50.870;0.022;2023-04-24T04:04:03;17.40;63.80
37806;DHT22;25082;50.870;0.022;2023-04-24T04:06:29;17.40;63.80
37806;DHT22;25082;50.870;0.022;2023-04-24T04:08:56;17.40;63.80
37806;DHT22;25082;50.870;0.022;2023-04-24T04:11:22;17.40;63.80
37806;DHT22;25082;50.870;0.022;2023-04-24T04:13:48;17.30;63.70
37806;DHT22;25082;50.870;0.022;2023-04-24T04:16:14;17.40;63.80
37806;DHT22;25082;50.870;0.022;2023-04-24T04:18:42;17.40;63.80
37806;DHT22;25082;50.870;0.022;2023-04-24T04:21:08;17.30;64.30
37806;DHT22;25082;50.870;0.022;2023-04-24T04:23:34;17.30;63.80
37806;DHT22;25082;50.870;0.022;2023-04-24T04:26:00;17.30;63.80
37806;DHT22;25082;50.870;0.022;2023-04-24T04:28:26;17.30;63.80
37806;DHT22;25082;50.870;0.022;2023-04-24T04:30:52;17.30;63.80
37806;DHT22;25082;50.870;0.022;2023-04-24T04:33:26;17.30;63.80
37806;DHT22;25082;50.870;0.022;2023-04-24T04:35:52;17.30;63.70
37806;DHT22;25082;50.870;0.022;2023-04-24T04:38:18;17.30;63.80
37806;DHT22;25082;50.870;0.022;2023-04-24T04:40:45;17.30;63.70
37806;DHT22;25082;50.870;0.022;2023-04-24T04:43:11;17.30;63.70
37806;DHT22;25082;50.870;0.022;2023-04-24T04:45:40;17.30;63.70
37806;DHT22;25082;50.870;0.022;2023-04-24T04:48:06;17.30;64.30
37806;DHT22;25082;50.870;0.022;2023-04-24T04:50:38;17.30;63.80
37806;DHT22;25082;50.870;0.022;2023-04-24T04:53:03;17.30;63.80
37806;DHT22;25082;50.870;0.022;2023-04-24T04:55:29;17.30;63.80
37806;DHT22;25082;50.870;0.022;2023-04-24T04:57:55;17.30;63.80
37806;DHT22;25082;50.870;0.022;2023-04-24T05:00:22;17.30;63.70
37806;DHT22;25082;50.870;0.022;2023-04-24T05:02:50;17.30;63.80
37806;DHT22;25082;50.870;0.022;2023-04-24T05:05:16;17.30;63.80
37806;DHT22;25082;50.870;0.022;2023-04-24T05:07:43;17.20;63.70
37806;DHT22;25082;50.870;0.022;2023-04-24T05:10:09;17.20;63.70
37806;DHT22;25082;50.870;0.022;2023-04-24T05:12:35;17.20;63.70
37806;DHT22;25082;50.870;0.022;2023-04-24T05:15:01;17.20;63.80
37806;DHT22;25082;50.870;0.022;2023-04-24T05:17:26;17.20;63.70
37806;DHT22;25082;50.870;0.022;2023-04-24T05:19:52;17.20;63.80
37806;DHT22;25082;50.870;0.022;2023-04-24T05:22:18;17.20;63.70
37806;DHT22;25082;50.870;0.022;2023-04-24T05:24:46;17.20;63.80
37806;DHT22;25082;50.870;0.022;2023-04-24T05:27:12;17.20;63.70
37806;DHT22;25082;50.870;0.022;2023-04-24T05:29:38;17.20;63.70
37806;DHT22;25082;50.870;0.022;2023-04-24T05:32:04;17.20;64.30
37806;DHT22;25082;50.870;0.022;2023-04-24T05:34:30;17.20;63.80
37806;DHT22;25082;50.870;0.022;2023-04-24T05:36:56;17.20;63.80
37806;DHT22;25082;50.870;0.022;2023-04-24T05:39:21;17.20;63.70
37806;DHT22;25082;50.870;0.022;2023-04-24T05:41:47;17.20;63.80
37806;DHT22;25082;50.870;0.022;2023-04-24T05:44:13;17.20;63.80
37806;DHT22;25082;50.870;0.022;2023-04-24T05:46:39;17.20;63.80
37806;DHT22;25082;50.870;0.022;2023-04-24T05:49:04;17.20;63.70
37806;DHT22;25082;50.870;0.022;2023-04-24T05:51:31;17.20;63.80
37806;DHT22;25082;50.870;0.022;2023-04-24T05:53:57;17.20;63.80
37806;DHT22;25082;50.870;0.022;2023-04-24T05:56:23;17.20;63.80
37806;DHT22;25082;50.870;0.022;2023-04-24T05:58:49;17.20;63.80
37806;DHT22;25082;50.870;0.022;2023-04-24T06:01:14;17.20;63.80
37806;DHT22;25082;50.870;0.022;2023-04-24T06:03:41;17.20;63.90
37806;DHT22;25082;50.870;0.022;2023-04-24T06:06:08;17.20;63.80
37806;DHT22;25082;50.870;0.022;2023-04-24T06:08:34;17.20;63.80
37806;DHT22;25082;50.870;0.022;2023-04-24T06:11:00;17.20;63.80
37806;DHT22;25082;50.870;0.022;2023-04-24T06:13:26;17.20;63.80
37806;DHT22;25082;50.870;0.022;2023-04-24T06:15:52;17.20;63.70
37806;DHT22;25082;50.870;0.022;2023-04-24T06:18:18;17.20;63.60
37806;DHT22;25082;50.870;0.022;2023-04-24T06:20:45;17.20;63.60
37806;DHT22;25082;50.870;0.022;2023-04-24T06:23:11;17.30;63.60
37806;DHT22;25082;50.870;0.022;2023-04-24T06:25:37;17.30;63.50
37806;DHT22;25082;50.870;0.022;2023-04-24T06:28:04;17.30;63.40
37806;DHT22;25082;50.870;0.022;2023-04-24T06:30:30;17.30;63.40
37806;DHT22;25082;50.870;0.022;2023-04-24T06:32:57;17.40;63.40
37806;DHT22;25082;50.870;0.022;2023-04-24T06:35:23;17.40;63.40
37806;DHT22;25082;50.870;0.022;2023-04-24T06:37:49;17.40;63.40
37806;DHT22;25082;50.870;0.022;2023-04-24T06:40:14;17.40;63.40
37806;DHT22;25082;50.870;0.022;2023-04-24T06:42:40;17.40;63.40
37806;DHT22;25082;50.870;0.022;2023-04-24T06:45:06;17.40;63.50
37806;DHT22;25082;50.870;0.022;2023-04-24T06:47:32;17.50;63.50
37806;DHT22;25082;50.870;0.022;2023-04-24T06:49:58;17.50;63.50
37806;DHT22;25082;50.870;0.022;2023-04-24T06:52:24;17.60;63.50
37806;DHT22;25082;50.870;0.022;2023-04-24T06:54:50;17.60;63.50
37806;DHT22;25082;50.870;0.022;2023-04-24T06:57:15;17.60;63.50
37806;DHT22;25082;50.870;0.022;2023-04-24T06:59:42;17.60;63.60
37806;DHT22;25082;50.870;0.022;2023-04-24T07:02:07;17.60;63.60
37806;DHT22;25082;50.870;0.022;2023-04-24T07:04:33;17.60;63.60
37806;DHT22;25082;50.870;0.022;2023-04-24T07:06:59;17.60;63.60
37806;DHT22;25082;50.870;0.022;2023-04-24T07:09:25;17.60;64.10
37806;DHT22;25082;50.870;0.022;2023-04-24T07:11:51;17.60;63.60
37806;DHT22;25082;50.870;0.022;2023-04-24T07:14:18;17.40;63.50
37806;DHT22;25082;50.870;0.022;2023-04-24T07:16:44;17.70;63.70
37806;DHT22;25082;50.870;0.022;2023-04-24T07:19:10;17.70;63.70
37806;DHT22;25082;50.870;0.022;2023-04-24T07:21:36;17.70;63.70
37806;DHT22;25082;50.870;0.022;2023-04-24T07:24:02;17.70;63.70
37806;DHT22;25082;50.870;0.022;2023-04-24T07:26:29;17.70;63.80
37806;DHT22;25082;50.870;0.022;2023-04-24T07:28:55;17.70;63.80
37806;DHT22;25082;50.870;0.022;2023-04-24T07:31:20;17.80;63.80
37806;DHT22;25082;50.870;0.022;2023-04-24T07:33:47;17.80;63.80
37806;DHT22;25082;50.870;0.022;2023-04-24T07:36:13;17.80;63.80
37806;DHT22;25082;50.870;0.022;2023-04-24T07:38:51;17.80;63.90
37806;DHT22;25082;50.870;0.022;2023-04-24T07:41:17;17.80;63.80
37806;DHT22;25082;50.870;0.022;2023-04-24T07:43:44;17.90;63.90
37806;DHT22;25082;50.870;0.022;2023-04-24T07:46:11;17.80;63.90
37806;DHT22;25082;50.870;0.022;2023-04-24T07:48:36;17.90;63.90
37806;DHT22;25082;50.870;0.022;2023-04-24T07:51:02;17.90;64.00
37806;DHT22;25082;50.870;0.022;2023-04-24T07:53:28;17.90;63.90
37806;DHT22;25082;50.870;0.022;2023-04-24T07:55:55;17.90;63.90
37806;DHT22;25082;50.870;0.022;2023-04-24T07:58:21;17.90;63.90
37806;DHT22;25082;50.870;0.022;2023-04-24T08:00:47;17.90;63.90
37806;DHT22;25082;50.870;0.022;2023-04-24T08:03:13;18.00;64.00
37806;DHT22;25082;50.870;0.022;2023-04-24T08:05:39;17.90;64.00
37806;DHT22;25082;50.870;0.022;2023-04-24T08:08:04;18.00;64.00
37806;DHT22;25082;50.870;0.022;2023-04-24T08:10:30;18.00;64.00
37806;DHT22;25082;50.870;0.022;2023-04-24T08:12:56;18.00;64.00
37806;DHT22;25082;50.870;0.022;2023-04-24T08:15:22;18.00;64.10
37806;DHT22;25082;50.870;0.022;2023-04-24T08:17:47;18.10;64.10
37806;DHT22;25082;50.870;0.022;2023-04-24T08:20:13;18.10;64.10
37806;DHT22;25082;50.870;0.022;2023-04-24T08:22:40;18.10;64.00
37806;DHT22;25082;50.870;0.022;2023-04-24T08:25:06;18.10;64.60
37806;DHT22;25082;50.870;0.022;2023-04-24T08:27:32;18.10;64.00
37806;DHT22;25082;50.870;0.022;2023-04-24T08:29:58;18.20;64.10
37806;DHT22;25082;50.870;0.022;2023-04-24T08:32:27;18.20;64.10
37806;DHT22;25082;50.870;0.022;2023-04-24T08:34:58;18.20;64.10
37806;DHT22;25082;50.870;0.022;2023-04-24T08:37:26;18.20;64.10
37806;DHT22;25082;50.870;0.022;2023-04-24T08:39:52;18.20;64.10
37806;DHT22;25082;50.870;0.022;2023-04-24T08:42:18;18.20;64.10
37806;DHT22;25082;50.870;0.022;2023-04-24T08:44:45;18.20;64.10
37806;DHT22;25082;50.870;0.022;2023-04-24T08:47:11;18.30;64.20
37806;DHT22;25082;50.870;0.022;2023-04-24T08:49:38;18.30;64.20
37806;DHT22;25082;50.870;0.022;2023-04-24T08:52:05;18.30;64.20
37806;DHT22;25082;50.870;0.022;2023-04-24T08:54:33;18.30;64.20
37806;DHT22;25082;50.870;0.022;2023-04-24T08:57:00;18.30;64.50
37806;DHT22;25082;50.870;0.022;2023-04-24T08:59:30;18.30;65.30
37806;DHT22;25082;50.870;0.022;2023-04-24T09:01:57;18.30;65.70
37806;DHT22;25082;50.870;0.022;2023-04-24T09:04:26;18.30;66.70
37806;DHT22;25082;50.870;0.022;2023-04-24T09:06:57;18.30;66.60
37806;DHT22;25082;50.870;0.022;2023-04-24T09:09:30;18.30;67.70
37806;DHT22;25082;50.870;0.022;2023-04-24T09:11:56;18.30;67.40
37806;DHT22;25082;50.870;0.022;2023-04-24T09:14:23;18.30;67.50
37806;DHT22;25082;50.870;0.022;2023-04-24T09:16:50;18.40;67.90
37806;DHT22;25082;50.870;0.022;2023-04-24T09:19:16;18.30;67.90
37806;DHT22;25082;50.870;0.022;2023-04-24T09:21:47;18.40;68.00
37806;DHT22;25082;50.870;0.022;2023-04-24T09:24:18;18.40;68.10
37806;DHT22;25082;50.870;0.022;2023-04-24T09:26:46;18.40;68.20
37806;DHT22;25082;50.870;0.022;2023-04-24T09:29:16;18.40;68.20
37806;DHT22;25082;50.870;0.022;2023-04-24T09:31:42;18.40;68.20
37806;DHT22;25082;50.870;0.022;2023-04-24T09:34:08;18.40;68.20
37806;DHT22;25082;50.870;0.022;2023-04-24T09:36:36;18.50;68.20
37806;DHT22;25082;50.870;0.022;2023-04-24T09:39:09;18.50;68.10
37806;DHT22;25082;50.870;0.022;2023-04-24T09:44:15;18.50;68.00
37806;DHT22;25082;50.870;0.022;2023-04-24T09:46:42;18.50;68.00
37806;DHT22;25082;50.870;0.022;2023-04-24T09:49:12;18.50;68.40
37806;DHT22;25082;50.870;0.022;2023-04-24T09:51:38;18.50;67.70
37806;DHT22;25082;50.870;0.022;2023-04-24T09:54:11;18.50;67.60
37806;DHT22;25082;50.870;0.022;2023-04-24T09:56:42;18.50;67.70
37806;DHT22;25082;50.870;0.022;2023-04-24T09:59:09;18.50;67.60
37806;DHT22;25082;50.870;0.022;2023-04-24T10:01:35;18.50;67.50
37806;DHT22;25082;50.870;0.022;2023-04-24T10:04:03;18.50;67.50
37806;DHT22;25082;50.870;0.022;2023-04-24T10:06:36;18.60;67.50
37806;DHT22;25082;50.870;0.022;2023-04-24T10:09:02;18.50;67.40
37806;DHT22;25082;50.870;0.022;2023-04-24T10:11:29;18.50;65.00
37806;DHT22;25082;50.870;0.022;2023-04-24T10:13:56;18.40;61.60
37806;DHT22;25082;50.870;0.022;2023-04-24T10:16:23;18.20;60.10
37806;DHT22;25082;50.870;0.022;2023-04-24T10:18:49;18.10;59.80
37806;DHT22;25082;50.870;0.022;2023-04-24T10:21:16;18.00;59.80
37806;DHT22;25082;50.870;0.022;2023-04-24T10:23:42;17.90;60.10
37806;DHT22;25082;50.870;0.022;2023-04-24T10:26:13;17.80;60.40
37806;DHT22;25082;50.870;0.022;2023-04-24T10:28:46;17.80;60.70
37806;DHT22;25082;50.870;0.022;2023-04-24T10:31:14;17.70;60.60
37806;DHT22;25082;50.870;0.022;2023-04-24T10:33:43;17.70;61.40
37806;DHT22;25082;50.870;0.022;2023-04-24T10:36:12;17.70;62.90
37806;DHT22;25082;50.870;0.022;2023-04-24T10:38:41;17.80;63.00
37806;DHT22;25082;50.870;0.022;2023-04-24T10:41:09;17.90;63.30
37806;DHT22;25082;50.870;0.022;2023-04-24T10:43:36;18.00;63.50
37806;DHT22;25082;50.870;0.022;2023-04-24T10:46:03;18.00;63.60
37806;DHT22;25082;50.870;0.022;2023-04-24T10:48:29;18.10;63.80
37806;DHT22;25082;50.870;0.022;2023-04-24T10:50:55;18.20;63.80
37806;DHT22;25082;50.870;0.022;2023-04-24T10:53:23;18.20;63.90
37806;DHT22;25082;50.870;0.022;2023-04-24T10:55:51;18.20;64.00
37806;DHT22;25082;50.870;0.022;2023-04-24T10:58:36;18.30;64.20
37806;DHT22;25082;50.870;0.022;2023-04-24T11:01:03;18.30;64.30
37806;DHT22;25082;50.870;0.022;2023-04-24T11:03:31;18.30;64.30
37806;DHT22;25082;50.870;0.022;2023-04-24T11:08:36;18.40;64.50
37806;DHT22;25082;50.870;0.022;2023-04-24T11:11:12;18.40;64.60
37806;DHT22;25082;50.870;0.022;2023-04-24T11:14:05;18.40;64.70
37806;DHT22;25082;50.870;0.022;2023-04-24T11:16:32;18.40;64.80
37806;DHT22;25082;50.870;0.022;2023-04-24T11:19:04;18.40;64.80
37806;DHT22;25082;50.870;0.022;2023-04-24T11:21:54;18.50;64.90
37806;DHT22;25082;50.870;0.022;2023-04-24T11:27:03;18.50;65.00
37806;DHT22;25082;50.870;0.022;2023-04-24T11:35:03;18.50;65.10
37806;DHT22;25082;50.870;0.022;2023-04-24T11:37:49;18.50;65.60
37806;DHT22;25082;50.870;0.022;2023-04-24T11:40:17;18.50;65.00
37806;DHT22;25082;50.870;0.022;2023-04-24T11:42:47;18.60;65.10
37806;DHT22;25082;50.870;0.022;2023-04-24T11:45:18;18.50;65.00
37806;DHT22;25082;50.870;0.022;2023-04-24T11:47:46;18.60;65.00
37806;DHT22;25082;50.870;0.022;2023-04-24T11:50:16;18.50;65.00
37806;DHT22;25082;50.870;0.022;2023-04-24T11:52:44;18.60;65.00
37806;DHT22;25082;50.870;0.022;2023-04-24T11:57:39;18.60;65.10
37806;DHT22;25082;50.870;0.022;2023-04-24T12:00:05;18.60;65.20
37806;DHT22;25082;50.870;0.022;2023-04-24T12:02:31;18.60;65.30
37806;DHT22;25082;50.870;0.022;2023-04-24T12:04:57;18.60;65.30
37806;DHT22;25082;50.870;0.022;2023-04-24T12:07:23;18.70;65.30
37806;DHT22;25082;50.870;0.022;2023-04-24T12:09:57;18.70;65.30
37806;DHT22;25082;50.870;0.022;2023-04-24T12:12:26;18.60;63.00
37806;DHT22;25082;50.870;0.022;2023-04-24T12:14:53;18.50;61.70
37806;DHT22;25082;50.870;0.022;2023-04-24T12:17:28;18.50;63.20
37806;DHT22;25082;50.870;0.022;2023-04-24T12:20:02;18.50;63.60
37806;DHT22;25082;50.870;0.022;2023-04-24T12:22:42;18.50;64.10
37806;DHT22;25082;50.870;0.022;2023-04-24T12:25:10;18.60;64.60
37806;DHT22;25082;50.870;0.022;2023-04-24T12:27:36;18.60;64.90
37806;DHT22;25082;50.870;0.022;2023-04-24T12:30:04;18.60;65.00
37806;DHT22;25082;50.870;0.022;2023-04-24T12:32:30;18.60;65.20
37806;DHT22;25082;50.870;0.022;2023-04-24T12:37:33;18.70;65.60
37806;DHT22;25082;50.870;0.022;2023-04-24T12:40:07;18.70;66.10
37806;DHT22;25082;50.870;0.022;2023-04-24T12:42:34;18.70;65.50
37806;DHT22;25082;50.870;0.022;2023-04-24T12:45:05;18.70;65.50
37806;DHT22;25082;50.870;0.022;2023-04-24T12:47:32;18.70;65.60
37806;DHT22;25082;50.870;0.022;2023-04-24T12:49:59;18.70;65.50
37806;DHT22;25082;50.870;0.022;2023-04-24T12:52:26;18.70;65.60
37806;DHT22;25082;50.870;0.022;2023-04-24T12:54:57;18.70;65.70
37806;DHT22;25082;50.870;0.022;2023-04-24T12:57:23;18.70;65.80
37806;DHT22;25082;50.870;0.022;2023-04-24T12:59:50;18.70;65.50
37806;DHT22;25082;50.870;0.022;2023-04-24T13:02:16;18.70;65.40
37806;DHT22;25082;50.870;0.022;2023-04-24T13:04:46;18.80;65.40
37806;DHT22;25082;50.870;0.022;2023-04-24T13:07:15;18.80;65.30
37806;DHT22;25082;50.870;0.022;2023-04-24T13:09:44;18.80;64.90
37806;DHT22;25082;50.870;0.022;2023-04-24T13:12:11;18.80;64.60
37806;DHT22;25082;50.870;0.022;2023-04-24T13:14:37;18.80;64.50
37806;DHT22;25082;50.870;0.022;2023-04-24T13:17:03;18.80;64.60
37806;DHT22;25082;50.870;0.022;2023-04-24T13:19:29;18.80;64.70
37806;DHT22;25082;50.870;0.022;2023-04-24T13:21:56;18.80;64.70
37806;DHT22;25082;50.870;0.022;2023-04-24T13:24:25;18.80;64.80
37806;DHT22;25082;50.870;0.022;2023-04-24T13:26:52;18.80;64.90
37806;DHT22;25082;50.870;0.022;2023-04-24T13:29:18;18.80;65.00
37806;DHT22;25082;50.870;0.022;2023-04-24T13:31:44;18.90;65.20
37806;DHT22;25082;50.870;0.022;2023-04-24T13:34:10;18.90;65.20
37806;DHT22;25082;50.870;0.022;2023-04-24T13:36:35;18.90;65.20
37806;DHT22;25082;50.870;0.022;2023-04-24T13:39:02;18.90;65.00
37806;DHT22;25082;50.870;0.022;2023-04-24T13:41:30;18.90;64.90
37806;DHT22;25082;50.870;0.022;2023-04-24T13:43:56;19.00;64.80
37806;DHT22;25082;50.870;0.022;2023-04-24T13:46:22;18.90;64.70
37806;DHT22;25082;50.870;0.022;2023-04-24T13:48:47;19.00;64.80
37806;DHT22;25082;50.870;0.022;2023-04-24T13:51:13;19.00;64.70
37806;DHT22;25082;50.870;0.022;2023-04-24T13:53:39;18.90;64.70
37806;DHT22;25082;50.870;0.022;2023-04-24T13:56:05;18.90;64.60
37806;DHT22;25082;50.870;0.022;2023-04-24T13:58:31;19.00;64.70
37806;DHT22;25082;50.870;0.022;2023-04-24T14:00:58;18.90;64.60
37806;DHT22;25082;50.870;0.022;2023-04-24T14:03:23;19.00;64.70
37806;DHT22;25082;50.870;0.022;2023-04-24T14:05:49;18.90;64.70
37806;DHT22;25082;50.870;0.022;2023-04-24T14:08:15;18.90;64.70
37806;DHT22;25082;50.870;0.022;2023-04-24T14:10:42;18.90;64.70
37806;DHT22;25082;50.870;0.022;2023-04-24T14:13:08;18.90;64.70
37806;DHT22;25082;50.870;0.022;2023-04-24T14:15:35;18.90;64.70
37806;DHT22;25082;50.870;0.022;2023-04-24T14:18:01;18.90;64.80
37806;DHT22;25082;50.870;0.022;2023-04-24T14:20:28;19.00;64.80
37806;DHT22;25082;50.870;0.022;2023-04-24T14:22:54;19.00;64.80
37806;DHT22;25082;50.870;0.022;2023-04-24T14:25:20;19.00;64.80
37806;DHT22;25082;50.870;0.022;2023-04-24T14:27:45;19.00;64.90
37806;DHT22;25082;50.870;0.022;2023-04-24T14:30:12;19.00;64.90
37806;DHT22;25082;50.870;0.022;2023-04-24T14:32:39;19.00;64.90
37806;DHT22;25082;50.870;0.022;2023-04-24T14:35:06;19.00;65.00
37806;DHT22;25082;50.870;0.022;2023-04-24T14:37:32;19.00;65.00
37806;DHT22;25082;50.870;0.022;2023-04-24T14:39:57;19.10;65.10
37806;DHT22;25082;50.870;0.022;2023-04-24T14:42:23;19.00;65.00
37806;DHT22;25082;50.870;0.022;2023-04-24T14:44:49;19.00;65.10
37806;DHT22;25082;50.870;0.022;2023-04-24T14:47:16;19.00;65.10
37806;DHT22;25082;50.870;0.022;2023-04-24T14:49:43;19.10;65.30
37806;DHT22;25082;50.870;0.022;2023-04-24T14:52:09;19.10;65.30
37806;DHT22;25082;50.870;0.022;2023-04-24T14:54:35;19.10;65.30
37806;DHT22;25082;50.870;0.022;2023-04-24T14:57:01;19.10;65.30
37806;DHT22;25082;50.870;0.022;2023-04-24T14:59:30;19.10;65.20
37806;DHT22;25082;50.870;0.022;2023-04-24T15:01:57;19.20;65.30
37806;DHT22;25082;50.870;0.022;2023-04-24T15:04:24;19.20;65.30
37806;DHT22;25082;50.870;0.022;2023-04-24T15:06:52;19.10;65.20
37806;DHT22;25082;50.870;0.022;2023-04-24T15:09:22;19.20;65.20
37806;DHT22;25082;50.870;0.022;2023-04-24T15:11:49;19.20;65.20
37806;DHT22;25082;50.870;0.022;2023-04-24T15:14:15;19.20;65.10
37806;DHT22;25082;50.870;0.022;2023-04-24T15:16:41;19.20;65.00
37806;DHT22;25082;50.870;0.022;2023-04-24T15:19:07;19.10;64.90
37806;DHT22;25082;50.870;0.022;2023-04-24T15:21:33;19.10;64.90
37806;DHT22;25082;50.870;0.022;2023-04-24T15:23:59;19.10;64.90
37806;DHT22;25082;50.870;0.022;2023-04-24T15:26:25;19.10;64.90
37806;DHT22;25082;50.870;0.022;2023-04-24T15:28:51;19.10;64.80
37806;DHT22;25082;50.870;0.022;2023-04-24T15:31:18;19.10;64.70
37806;DHT22;25082;50.870;0.022;2023-04-24T15:33:44;19.00;64.70
37806;DHT22;25082;50.870;0.022;2023-04-24T15:36:10;19.00;64.70
37806;DHT22;25082;50.870;0.022;2023-04-24T15:38:36;19.10;65.00
37806;DHT22;25082;50.870;0.022;2023-04-24T15:41:02;19.10;65.00
37806;DHT22;25082;50.870;0.022;2023-04-24T15:43:28;19.00;64.90
37806;DHT22;25082;50.870;0.022;2023-04-24T15:45:59;19.00;64.90